createdAt,value
2022-08-03T00:00:26.064Z,83.12
2022-08-03T00:02:53.120Z,83.42
2022-08-03T00:05:20.042Z,83.36
2022-08-03T00:07:46.925Z,83.12
2022-08-03T00:10:16.550Z,83.59
2022-08-03T00:12:43.388Z,83.18
2022-08-03T00:15:15.063Z,82.67
2022-08-03T00:17:53.432Z,82.69
2022-08-03T00:20:21.735Z,82.89
2022-08-03T00:22:49.044Z,83.51
2022-08-03T00:25:16.312Z,83.90
2022-08-03T00:27:43.189Z,84.53
2022-08-03T00:30:10.503Z,84.36
2022-08-03T00:32:38.843Z,84.39
2022-08-03T00:35:20.440Z,85.02
2022-08-03T00:37:58.389Z,84.84
2022-08-03T00:40:25.227Z,85.20
2022-08-03T00:42:53.998Z,85.38
2022-08-03T00:45:21.622Z,85.68
2022-08-03T00:47:48.591Z,85.23
2022-08-03T00:50:16.591Z,86.22
2022-08-03T00:52:43.709Z,85.93
2022-08-03T00:55:10.899Z,86.46
2022-08-03T00:57:39.443Z,86.56
2022-08-03T01:00:07.895Z,86.92
2022-08-03T01:02:34.995Z,86.93
2022-08-03T01:05:01.864Z,87.24
2022-08-03T01:07:44.029Z,87.01
2022-08-03T01:10:28.973Z,86.41
2022-08-03T01:12:58.439Z,87.25
2022-08-03T01:15:30.060Z,87.21
2022-08-03T01:18:03.243Z,87.11
2022-08-03T01:20:33.310Z,86.43
2022-08-03T01:23:16.172Z,87.46
2022-08-03T01:25:55.923Z,87.28
2022-08-03T01:28:25.527Z,87.45
2022-08-03T01:30:54.060Z,87.53
2022-08-03T01:33:24.235Z,86.96
2022-08-03T01:35:57.202Z,87.55
2022-08-03T01:38:26.025Z,87.90
2022-08-03T01:40:54.049Z,88.09
2022-08-03T01:44:27.698Z,88.38
2022-08-03T01:46:11.512Z,88.19
2022-08-03T01:48:39.595Z,88.02
2022-08-03T01:51:07.939Z,88.65
2022-08-03T01:53:35.674Z,88.88
2022-08-03T01:56:03.705Z,89.13
2022-08-03T01:58:32.000Z,88.83
2022-08-03T02:01:00.883Z,89.39
2022-08-03T02:03:29.549Z,89.55
2022-08-03T02:06:58.979Z,88.86
2022-08-03T02:08:45.140Z,89.56
2022-08-03T02:11:12.963Z,89.45
2022-08-03T02:13:40.448Z,89.99
2022-08-03T02:16:08.279Z,89.86
2022-08-03T02:18:35.168Z,89.73
2022-08-03T02:21:02.808Z,89.33
2022-08-03T02:23:38.106Z,89.57
2022-08-03T02:26:06.777Z,89.11
2022-08-03T02:28:38.293Z,89.46
2022-08-03T02:31:07.011Z,89.81
2022-08-03T02:33:38.844Z,89.50
2022-08-03T02:36:06.479Z,89.81
2022-08-03T02:38:34.323Z,90.17
2022-08-03T02:41:05.005Z,90.51
2022-08-03T02:43:57.699Z,89.97
2022-08-03T02:46:24.106Z,90.49
2022-08-03T02:48:52.168Z,90.15
2022-08-03T02:51:20.358Z,90.88
2022-08-03T02:53:48.164Z,90.34
2022-08-03T02:56:16.105Z,90.55
2022-08-03T02:58:44.180Z,89.66
2022-08-03T03:01:12.383Z,90.93
2022-08-03T03:03:44.945Z,91.57
2022-08-03T03:06:12.664Z,91.41
2022-08-03T03:08:42.256Z,90.92
2022-08-03T03:11:10.310Z,90.81
2022-08-03T03:13:38.639Z,91.25
2022-08-03T03:16:06.095Z,91.21
2022-08-03T03:18:33.915Z,91.50
2022-08-03T03:21:01.564Z,91.90
2022-08-03T03:23:28.748Z,92.58
2022-08-03T03:25:56.153Z,92.54
2022-08-03T03:28:24.300Z,92.57
2022-08-03T03:30:52.986Z,92.61
2022-08-03T03:33:21.108Z,92.67
2022-08-03T03:35:48.229Z,92.77
2022-08-03T03:38:15.048Z,93.62
2022-08-03T03:40:41.913Z,93.07
2022-08-03T03:43:09.342Z,92.77
2022-08-03T03:45:36.546Z,93.19
2022-08-03T03:48:06.945Z,93.69
2022-08-03T03:50:34.774Z,93.46
2022-08-03T03:53:01.909Z,93.31
2022-08-03T03:55:28.950Z,93.38
2022-08-03T03:57:55.910Z,93.33
2022-08-03T04:00:23.065Z,93.49
2022-08-03T04:02:49.911Z,93.23
2022-08-03T04:05:16.785Z,94.05
2022-08-03T04:07:52.432Z,93.83
2022-08-03T04:10:21.251Z,94.04
2022-08-03T04:12:49.944Z,94.14
2022-08-03T04:15:19.288Z,93.88
2022-08-03T04:17:46.854Z,93.65
2022-08-03T04:20:14.075Z,93.60
2022-08-03T04:22:41.397Z,93.59
2022-08-03T04:25:10.316Z,92.85
2022-08-03T04:27:40.330Z,92.78
2022-08-03T04:30:08.082Z,92.51
2022-08-03T04:32:35.619Z,92.39
2022-08-03T04:35:02.941Z,92.43
2022-08-03T04:37:40.069Z,91.83
2022-08-03T04:40:08.944Z,91.55
2022-08-03T04:42:37.602Z,89.24
2022-08-03T04:45:05.086Z,88.31
2022-08-03T04:47:32.989Z,87.37
2022-08-03T04:50:03.531Z,86.41
2022-08-03T04:52:30.930Z,85.77
2022-08-03T04:54:57.811Z,84.67
2022-08-03T04:57:24.679Z,84.20
2022-08-03T04:59:54.630Z,84.07
2022-08-03T05:02:23.897Z,83.49
2022-08-03T05:04:50.782Z,82.39
2022-08-03T05:07:22.710Z,81.54
2022-08-03T05:09:52.696Z,80.53
2022-08-03T05:12:25.847Z,79.20
2022-08-03T05:14:54.211Z,78.76
2022-08-03T05:17:21.051Z,78.22
2022-08-03T05:19:47.928Z,77.84
2022-08-03T05:22:14.963Z,78.91
2022-08-03T05:24:41.986Z,78.54
2022-08-03T05:27:08.828Z,77.96
2022-08-03T05:29:35.640Z,77.53
2022-08-03T05:32:16.195Z,77.74
2022-08-03T05:34:43.197Z,76.83
2022-08-03T05:37:10.109Z,76.78
2022-08-03T05:39:37.053Z,76.09
2022-08-03T05:42:04.033Z,77.04
2022-08-03T05:44:30.902Z,76.23
2022-08-03T05:46:58.635Z,75.73
2022-08-03T05:49:25.507Z,74.66
2022-08-03T05:51:59.964Z,74.46
2022-08-03T05:54:56.897Z,73.14
2022-08-03T05:57:22.032Z,72.83
2022-08-03T05:59:54.823Z,72.42
2022-08-03T06:02:28.643Z,71.48
2022-08-03T06:04:55.506Z,72.03
2022-08-03T06:07:22.565Z,71.36
2022-08-03T06:10:34.492Z,70.55
2022-08-03T06:12:36.660Z,70.50
2022-08-03T06:15:04.625Z,69.63
2022-08-03T06:17:37.692Z,69.09
2022-08-03T06:20:05.602Z,69.31
2022-08-03T06:22:32.422Z,69.48
2022-08-03T06:24:59.976Z,69.36
2022-08-03T06:27:37.113Z,68.44
2022-08-03T06:30:04.811Z,67.09
2022-08-03T06:32:31.677Z,68.70
2022-08-03T06:34:58.515Z,68.52
2022-08-03T06:37:25.405Z,67.74
2022-08-03T06:39:52.452Z,66.75
2022-08-03T06:42:19.680Z,66.35
2022-08-03T06:44:47.563Z,66.75
2022-08-03T06:47:14.393Z,66.12
2022-08-03T06:49:41.294Z,64.37
2022-08-03T06:52:08.181Z,62.41
2022-08-03T06:54:35.777Z,63.80
2022-08-03T06:57:02.925Z,63.30
2022-08-03T07:00:10.699Z,62.38
2022-08-03T07:02:19.239Z,62.21
2022-08-03T07:04:49.866Z,61.82
2022-08-03T07:07:16.827Z,60.90
2022-08-03T07:09:56.662Z,60.76
2022-08-03T07:12:24.618Z,60.62
2022-08-03T07:14:51.488Z,59.94
2022-08-03T07:17:18.316Z,59.54
2022-08-03T07:19:45.142Z,60.39
2022-08-03T07:22:12.047Z,59.14
2022-08-03T07:24:38.929Z,57.80
2022-08-03T07:27:05.767Z,58.45
2022-08-03T07:29:34.811Z,58.72
2022-08-03T07:32:02.235Z,58.12
2022-08-03T07:34:29.179Z,57.73
2022-08-03T07:36:56.393Z,57.01
2022-08-03T07:39:23.257Z,55.50
2022-08-03T07:41:50.107Z,54.46
2022-08-03T07:44:17.525Z,54.16
2022-08-03T07:46:44.407Z,53.98
2022-08-03T07:49:11.398Z,54.06
2022-08-03T07:51:38.380Z,53.79
2022-08-03T07:54:05.441Z,53.13
2022-08-03T07:56:32.313Z,53.20
2022-08-03T07:58:59.273Z,50.84
2022-08-03T08:01:26.122Z,50.33
2022-08-03T08:03:53.716Z,48.83
2022-08-03T08:06:21.401Z,48.46
2022-08-03T08:08:48.273Z,48.46
2022-08-03T08:11:15.216Z,49.26
2022-08-03T08:13:42.030Z,48.12
2022-08-03T08:16:09.101Z,47.87
2022-08-03T08:18:35.978Z,46.86
2022-08-03T08:21:02.817Z,45.50
2022-08-03T08:23:42.701Z,46.92
2022-08-03T08:26:12.111Z,46.27
2022-08-03T08:28:39.316Z,46.35
2022-08-03T08:31:06.144Z,45.84
2022-08-03T08:33:48.315Z,44.70
2022-08-03T08:36:19.837Z,43.84
2022-08-03T08:38:46.853Z,41.00
2022-08-03T08:41:14.823Z,42.50
2022-08-03T08:43:42.168Z,42.35
2022-08-03T08:46:12.477Z,42.34
2022-08-03T08:48:43.967Z,41.69
2022-08-03T08:51:12.019Z,40.41
2022-08-03T08:53:40.855Z,40.74
2022-08-03T08:56:08.788Z,40.65
2022-08-03T08:58:37.665Z,40.99
2022-08-03T09:01:05.898Z,40.42
2022-08-03T09:03:33.457Z,39.26
2022-08-03T09:06:00.625Z,37.82
2022-08-03T09:08:28.590Z,37.88
2022-08-03T09:10:55.533Z,37.57
2022-08-03T09:13:22.616Z,38.58
2022-08-03T09:16:08.452Z,37.09
2022-08-03T09:18:35.308Z,36.94
2022-08-03T09:21:33.560Z,36.98
2022-08-03T09:24:03.769Z,37.26
2022-08-03T09:26:32.440Z,37.07
2022-08-03T09:29:04.881Z,35.72
2022-08-03T09:31:37.392Z,38.32
2022-08-03T09:34:05.762Z,37.51
2022-08-03T09:36:34.538Z,38.39
2022-08-03T09:39:05.131Z,38.35
2022-08-03T09:41:32.533Z,35.41
2022-08-03T09:43:59.801Z,37.21
2022-08-03T09:46:26.689Z,38.78
2022-08-03T09:48:53.632Z,37.12
2022-08-03T09:51:32.796Z,37.41
2022-08-03T09:54:18.893Z,37.28
2022-08-03T09:56:47.499Z,36.24
2022-08-03T09:59:26.192Z,36.19
2022-08-03T10:01:53.463Z,36.06
2022-08-03T10:04:20.430Z,35.68
2022-08-03T10:07:01.743Z,36.90
2022-08-03T10:09:28.598Z,36.16
2022-08-03T10:11:55.494Z,38.18
2022-08-03T10:14:22.978Z,37.46
2022-08-03T10:16:50.231Z,35.40
2022-08-03T10:19:17.218Z,35.97
2022-08-03T10:21:53.548Z,37.22
2022-08-03T10:24:29.965Z,36.56
2022-08-03T10:27:01.152Z,34.97
2022-08-03T10:29:28.515Z,35.96
2022-08-03T10:31:58.648Z,35.88
2022-08-03T10:34:27.054Z,35.89
2022-08-03T10:36:56.511Z,35.44
2022-08-03T10:39:24.598Z,33.93
2022-08-03T10:41:51.916Z,34.38
2022-08-03T10:44:20.873Z,34.39
2022-08-03T10:46:48.489Z,34.54
2022-08-03T10:49:17.164Z,35.54
2022-08-03T10:52:01.130Z,34.69
2022-08-03T10:54:38.652Z,35.84
2022-08-03T10:57:35.987Z,35.11
2022-08-03T11:00:18.664Z,34.59
2022-08-03T11:03:04.169Z,36.88
2022-08-03T11:05:32.354Z,35.53
2022-08-03T11:08:18.151Z,36.87
2022-08-03T11:10:45.242Z,35.45
2022-08-03T11:13:16.906Z,34.98
2022-08-03T11:15:45.976Z,37.17
2022-08-03T11:18:13.226Z,36.51
2022-08-03T11:20:49.056Z,36.42
2022-08-03T11:23:16.753Z,36.17
2022-08-03T11:26:09.601Z,37.04
2022-08-03T11:28:36.528Z,37.11
2022-08-03T11:31:46.763Z,35.36
2022-08-03T11:34:09.638Z,35.64
2022-08-03T11:36:55.135Z,36.21
2022-08-03T11:39:22.080Z,35.52
2022-08-03T11:41:48.906Z,35.20
2022-08-03T11:44:34.525Z,34.14
2022-08-03T11:47:01.456Z,35.15
2022-08-03T11:49:28.361Z,33.55
2022-08-03T11:51:55.284Z,34.48
2022-08-03T11:54:22.317Z,34.59
2022-08-03T11:56:49.746Z,32.99
2022-08-03T11:59:21.681Z,34.21
2022-08-03T12:01:49.555Z,34.42
2022-08-03T12:04:16.554Z,35.04
2022-08-03T12:06:59.778Z,35.72
2022-08-03T12:09:26.625Z,33.30
2022-08-03T12:12:00.486Z,34.15
2022-08-03T12:14:49.020Z,34.17
2022-08-03T12:17:15.970Z,32.99
2022-08-03T12:19:43.405Z,31.68
2022-08-03T12:22:10.349Z,32.65
2022-08-03T12:24:43.939Z,33.97
2022-08-03T12:27:10.817Z,32.97
2022-08-03T12:29:37.748Z,33.62
2022-08-03T12:32:04.757Z,35.51
2022-08-03T12:34:50.429Z,33.55
2022-08-03T12:37:22.662Z,34.05
2022-08-03T12:40:00.476Z,33.61
2022-08-03T12:42:31.585Z,33.72
2022-08-03T12:44:58.456Z,33.43
2022-08-03T12:47:25.309Z,32.82
2022-08-03T12:49:53.234Z,34.42
2022-08-03T12:52:21.331Z,32.82
2022-08-03T12:54:58.198Z,33.75
2022-08-03T12:57:25.276Z,33.22
2022-08-03T12:59:53.454Z,32.70
2022-08-03T13:02:23.401Z,33.31
2022-08-03T13:04:51.421Z,34.34
2022-08-03T13:07:19.666Z,33.90
2022-08-03T13:09:48.485Z,32.72
2022-08-03T13:12:22.093Z,31.76
2022-08-03T13:14:50.269Z,32.50
2022-08-03T13:17:17.341Z,32.12
2022-08-03T13:19:45.147Z,32.10
2022-08-03T13:22:11.967Z,32.88
2022-08-03T13:24:38.847Z,32.17
2022-08-03T13:28:01.936Z,32.03
2022-08-03T13:29:52.546Z,33.79
2022-08-03T13:32:19.877Z,35.24
2022-08-03T13:34:46.824Z,33.13
2022-08-03T13:37:13.999Z,31.50
2022-08-03T13:39:58.354Z,32.11
2022-08-03T13:42:31.314Z,32.62
2022-08-03T13:44:58.708Z,33.79
2022-08-03T13:47:25.931Z,32.97
2022-08-03T13:50:00.049Z,32.57
2022-08-03T13:52:29.709Z,30.38
2022-08-03T13:54:56.569Z,31.71
2022-08-03T13:58:04.606Z,31.14
2022-08-03T14:00:10.564Z,32.75
2022-08-03T14:02:37.505Z,31.87
2022-08-03T14:05:04.510Z,32.28
2022-08-03T14:07:31.366Z,32.69
2022-08-03T14:09:58.181Z,32.42
2022-08-03T14:12:25.034Z,32.63
2022-08-03T14:14:51.862Z,33.03
2022-08-03T14:17:19.149Z,33.42
2022-08-03T14:19:53.575Z,33.11
2022-08-03T14:22:21.158Z,32.43
2022-08-03T14:24:48.032Z,30.22
2022-08-03T14:27:16.522Z,32.09
2022-08-03T14:29:43.420Z,30.89
2022-08-03T14:32:13.172Z,30.65
2022-08-03T14:34:40.714Z,31.41
2022-08-03T14:37:07.636Z,31.78
2022-08-03T14:42:21.322Z,32.33
2022-08-03T14:44:48.203Z,31.29
2022-08-03T14:47:15.222Z,30.86
2022-08-03T14:50:37.085Z,31.50
2022-08-03T14:52:29.149Z,32.27
2022-08-03T14:54:56.041Z,32.01
2022-08-03T14:57:31.859Z,29.14
2022-08-03T14:59:58.692Z,30.60
2022-08-03T15:02:25.649Z,29.08
2022-08-03T15:04:52.752Z,29.63
2022-08-03T15:07:19.836Z,29.76
2022-08-03T15:09:46.823Z,30.84
2022-08-03T15:12:13.714Z,30.02
2022-08-03T15:14:40.614Z,29.06
2022-08-03T15:17:07.739Z,28.04
2022-08-03T15:20:02.353Z,28.76
2022-08-03T15:22:24.828Z,30.32
2022-08-03T15:24:52.599Z,29.97
2022-08-03T15:27:19.623Z,30.71
2022-08-03T15:30:07.583Z,30.40
2022-08-03T15:32:34.022Z,27.68
2022-08-03T15:35:01.006Z,30.62
2022-08-03T15:37:28.076Z,30.05
2022-08-03T15:39:59.622Z,28.90
2022-08-03T15:42:28.488Z,30.54
2022-08-03T15:44:55.373Z,30.55
2022-08-03T15:47:22.579Z,31.27
2022-08-03T15:49:49.663Z,28.62
2022-08-03T15:52:16.508Z,29.06
2022-08-03T15:54:43.419Z,29.36
2022-08-03T15:57:11.233Z,28.75
2022-08-03T15:59:38.101Z,29.62
2022-08-03T16:02:04.983Z,29.81
2022-08-03T16:04:31.842Z,29.01
2022-08-03T16:06:58.693Z,30.92
2022-08-03T16:09:43.329Z,30.52
2022-08-03T16:12:15.752Z,32.42
2022-08-03T16:14:52.404Z,34.19
2022-08-03T16:17:20.706Z,34.22
2022-08-03T16:19:47.755Z,36.84
2022-08-03T16:22:14.714Z,37.02
2022-08-03T16:24:41.592Z,37.66
2022-08-03T16:27:17.316Z,38.34
2022-08-03T16:29:55.333Z,40.25
2022-08-03T16:32:22.193Z,38.67
2022-08-03T16:34:49.047Z,39.42
2022-08-03T16:37:37.774Z,40.31
2022-08-03T16:40:04.656Z,40.70
2022-08-03T16:42:33.597Z,40.56
2022-08-03T16:45:00.457Z,41.32
2022-08-03T16:47:27.288Z,40.60
2022-08-03T16:49:56.417Z,40.85
2022-08-03T16:52:24.055Z,40.79
2022-08-03T16:54:53.224Z,42.01
2022-08-03T16:57:58.400Z,41.95
2022-08-03T17:00:08.807Z,42.55
2022-08-03T17:02:36.253Z,43.30
2022-08-03T17:05:03.428Z,43.40
2022-08-03T17:07:30.653Z,45.09
2022-08-03T17:09:57.722Z,45.71
2022-08-03T17:12:26.892Z,45.85
2022-08-03T17:14:54.014Z,46.01
2022-08-03T17:17:37.621Z,46.86
2022-08-03T17:20:18.827Z,47.21
2022-08-03T17:22:49.744Z,47.30
2022-08-03T17:25:22.149Z,47.10
2022-08-03T17:28:49.701Z,47.42
2022-08-03T17:30:51.362Z,46.89
2022-08-03T17:33:20.874Z,46.72
2022-08-03T17:35:47.746Z,47.94
2022-08-03T17:38:22.378Z,48.58
2022-08-03T17:40:52.040Z,48.27
2022-08-03T17:44:13.784Z,48.62
2022-08-03T17:46:07.219Z,48.62
2022-08-03T17:48:37.781Z,48.85
2022-08-03T17:51:17.581Z,48.91
2022-08-03T17:53:48.135Z,49.35
2022-08-03T17:56:45.125Z,49.35
2022-08-03T17:59:15.039Z,50.49
2022-08-03T18:01:58.185Z,50.09
2022-08-03T18:04:38.410Z,50.37
2022-08-03T18:10:06.752Z,49.72
2022-08-03T18:12:47.630Z,49.50
2022-08-03T18:15:22.968Z,50.24
2022-08-03T18:17:55.313Z,49.68
2022-08-03T18:20:42.072Z,50.28
2022-08-03T18:23:20.403Z,50.04
2022-08-03T18:26:00.657Z,51.71
2022-08-03T18:28:28.874Z,51.09
2022-08-03T18:30:55.902Z,51.39
2022-08-03T18:34:16.658Z,51.67
2022-08-03T18:36:11.032Z,51.52
2022-08-03T18:38:46.457Z,52.01
2022-08-03T18:44:08.323Z,51.70
2022-08-03T18:46:36.176Z,51.57
2022-08-03T18:49:08.326Z,51.84
2022-08-03T18:51:43.224Z,52.38
2022-08-03T18:54:45.643Z,52.64
2022-08-03T18:57:19.204Z,52.32
2022-08-03T18:59:51.687Z,53.21
2022-08-03T19:02:30.316Z,52.98
2022-08-03T19:05:03.385Z,52.60
2022-08-03T19:07:36.028Z,53.60
2022-08-03T19:10:07.581Z,53.72
2022-08-03T19:12:45.714Z,53.54
2022-08-03T19:15:13.709Z,53.22
2022-08-03T19:17:52.769Z,53.95
2022-08-03T19:20:21.712Z,54.20
2022-08-03T19:22:50.893Z,53.76
2022-08-03T19:25:17.919Z,53.56
2022-08-03T19:27:46.849Z,54.23
2022-08-03T19:30:26.218Z,54.80
2022-08-03T19:32:54.008Z,54.80
2022-08-03T19:35:52.138Z,54.68
2022-08-03T19:38:08.671Z,55.58
2022-08-03T19:40:42.092Z,55.26
2022-08-03T19:43:14.340Z,55.51
2022-08-03T19:46:04.452Z,55.85
2022-08-03T19:48:33.253Z,55.89
2022-08-03T19:51:02.477Z,56.31
2022-08-03T19:53:44.873Z,55.96
2022-08-03T19:56:14.093Z,56.53
2022-08-03T19:58:42.563Z,56.96
2022-08-03T20:01:19.163Z,57.37
2022-08-03T20:03:47.429Z,57.65
2022-08-03T20:06:16.904Z,57.83
2022-08-03T20:08:44.403Z,58.35
2022-08-03T20:11:11.405Z,57.83
2022-08-03T20:13:39.136Z,58.85
2022-08-03T20:16:06.194Z,58.51
2022-08-03T20:18:39.289Z,59.13
2022-08-03T20:21:15.062Z,58.96
2022-08-03T20:23:58.083Z,58.81
2022-08-03T20:26:30.222Z,59.52
2022-08-03T20:29:00.771Z,59.51
2022-08-03T20:31:36.663Z,59.88
2022-08-03T20:34:03.802Z,60.40
2022-08-03T20:36:30.701Z,59.66
2022-08-03T20:38:58.241Z,59.94
2022-08-03T20:41:25.398Z,59.53
2022-08-03T20:43:52.268Z,61.24
2022-08-03T20:46:29.133Z,61.50
2022-08-03T20:49:04.338Z,62.16
2022-08-03T20:51:49.762Z,62.25
2022-08-03T20:54:22.550Z,61.91
2022-08-03T20:56:57.477Z,62.14
2022-08-03T20:59:25.055Z,62.56
2022-08-03T21:01:51.885Z,62.70
2022-08-03T21:04:21.683Z,62.68
2022-08-03T21:06:57.657Z,62.61
2022-08-03T21:12:15.451Z,63.42
2022-08-03T21:13:04.040Z,49.77
2022-08-03T21:13:04.167Z,51.92
2022-08-03T21:13:13.764Z,63.23
2022-08-03T21:15:02.292Z,63.85
2022-08-03T21:17:40.648Z,63.75
2022-08-03T21:20:09.368Z,64.46
2022-08-03T21:22:37.649Z,64.67
2022-08-03T21:25:06.325Z,65.15
2022-08-03T21:27:33.165Z,64.87
2022-08-03T21:30:01.038Z,65.16
2022-08-03T21:32:32.316Z,65.06
2022-08-03T21:35:00.562Z,65.19
2022-08-03T21:37:28.081Z,65.32
2022-08-03T21:39:55.555Z,65.53
2022-08-03T21:42:22.928Z,65.26
2022-08-03T21:44:50.670Z,66.34
2022-08-03T21:47:18.120Z,66.54
2022-08-03T21:50:07.080Z,67.22
2022-08-03T21:52:35.417Z,67.26
2022-08-03T21:55:05.783Z,66.65
2022-08-03T21:57:34.096Z,67.03
2022-08-03T22:00:12.783Z,66.86
2022-08-03T22:02:44.837Z,66.49
2022-08-03T22:05:19.969Z,67.39
2022-08-03T22:08:07.532Z,67.25
2022-08-03T22:10:34.363Z,67.49
2022-08-03T22:13:01.188Z,67.68
2022-08-03T22:15:28.029Z,67.45
2022-08-03T22:17:57.160Z,67.54
2022-08-03T22:20:24.463Z,67.65
2022-08-03T22:22:56.738Z,67.87
2022-08-03T22:25:25.991Z,67.76
2022-08-03T22:27:53.913Z,67.72
2022-08-03T22:30:21.174Z,67.64
2022-08-03T22:32:52.620Z,68.23
2022-08-03T22:35:21.024Z,68.74
2022-08-03T22:37:53.033Z,69.10
2022-08-03T22:40:19.873Z,69.18
2022-08-03T22:42:47.192Z,68.99
2022-08-03T22:46:07.013Z,69.13
2022-08-03T22:48:01.311Z,69.45
2022-08-03T22:50:31.467Z,69.51
2022-08-03T22:53:01.195Z,69.00
2022-08-03T22:55:28.193Z,69.71
2022-08-03T22:57:55.700Z,70.09
2022-08-03T23:00:23.435Z,71.27
2022-08-03T23:02:53.633Z,71.09
2022-08-03T23:06:02.557Z,71.32
2022-08-03T23:08:14.525Z,71.69
2022-08-03T23:10:46.650Z,71.18
2022-08-03T23:13:16.344Z,71.55
2022-08-03T23:15:48.776Z,72.00
2022-08-03T23:18:16.167Z,72.41
2022-08-03T23:20:44.709Z,71.97
2022-08-03T23:23:12.526Z,72.25
2022-08-03T23:25:41.484Z,72.14
2022-08-03T23:28:08.930Z,72.84
2022-08-03T23:30:37.248Z,72.81
2022-08-03T23:33:04.206Z,73.20
2022-08-03T23:36:28.210Z,73.48
2022-08-03T23:38:22.621Z,73.89
2022-08-03T23:40:51.325Z,73.48
2022-08-03T23:43:45.150Z,72.98
2022-08-03T23:46:06.645Z,74.87
2022-08-03T23:48:33.974Z,74.31
2022-08-03T23:51:03.103Z,75.37
2022-08-03T23:53:40.643Z,75.86
2022-08-03T23:56:07.510Z,74.63
2022-08-03T23:58:43.330Z,75.89
